Time;durP1;ratioP1;P1;durP2;ratioP2;P2;SDS_P1;SDS_P2;PMS_P1;PMS_P2;Temp;Humidity;BMP_temperature;BMP_pressure;BME280_temperature;BME280_humidity;BME280_pressure;Samples;Min_cycle;Max_cycle;Signal;HPM_P1;HPM_P2
2023/06/07 00:01:57;;;;;;;5.22;3.92;;;;;;;20.15;54.85;93425.75;5077103;28;20032;-88
2023/06/07 00:04:22;;;;;;;6.57;4.47;;;;;;;20.17;54.90;93431.47;5075724;28;20410;-87
2023/06/07 00:06:48;;;;;;;8.27;4.40;;;;;;;20.15;54.92;93428.50;5060723;28;20036;-88
2023/06/07 00:09:13;;;;;;;5.82;3.75;;;;;;;20.15;54.87;93425.75;5092416;28;20036;-87
2023/06/07 00:11:39;;;;;;;4.32;3.45;;;;;;;20.17;54.58;93417.75;5070702;28;20033;-91
2023/06/07 00:14:04;;;;;;;5.05;4.07;;;;;;;20.16;54.77;93424.50;5082659;28;20053;-88
2023/06/07 00:16:30;;;;;;;5.03;3.65;;;;;;;20.15;54.93;93419.53;5092406;28;20450;-87
2023/06/07 00:18:57;;;;;;;7.25;4.40;;;;;;;20.15;54.79;93414.78;5082523;28;20483;-88
2023/06/07 00:21:23;;;;;;;5.88;4.65;;;;;;;20.17;54.90;93420.50;5075786;28;20178;-87
2023/06/07 00:23:48;;;;;;;6.25;4.18;;;;;;;20.16;54.80;93410.78;5107752;28;20478;-88
2023/06/07 00:26:13;;;;;;;5.32;4.10;;;;;;;20.16;54.90;93421.75;5093896;27;20036;-87
2023/06/07 00:28:39;;;;;;;6.57;4.15;;;;;;;20.15;54.83;93419.53;5114467;27;20036;-87
2023/06/07 00:31:04;;;;;;;6.70;3.95;;;;;;;20.15;54.92;93414.03;5113480;28;20027;-93
2023/06/07 00:33:30;;;;;;;6.75;3.78;;;;;;;20.15;54.89;93416.78;5114396;28;20446;-88
2023/06/07 00:35:55;;;;;;;5.05;3.72;;;;;;;20.16;54.72;93415.53;5108966;28;20318;-89
2023/06/07 00:38:22;;;;;;;6.32;4.20;;;;;;;20.15;54.79;93414.78;5126033;27;20043;-90
2023/06/07 00:40:48;;;;;;;7.13;4.72;;;;;;;20.14;54.74;93416.03;5097172;28;20105;-88
2023/06/07 00:43:13;;;;;;;5.45;4.13;;;;;;;20.15;54.77;93416.78;5085796;28;20036;-88
2023/06/07 00:45:39;;;;;;;4.93;3.35;;;;;;;20.13;54.89;93411.09;5093960;28;20036;-87
2023/06/07 00:48:04;;;;;;;6.63;3.63;;;;;;;20.12;54.79;93410.34;5093301;28;20036;-88
2023/06/07 00:50:30;;;;;;;6.22;4.53;;;;;;;20.12;54.69;93413.09;5101595;28;20383;-87
2023/06/07 00:52:55;;;;;;;8.10;3.60;;;;;;;20.13;54.67;93408.34;5092576;28;20054;-87
2023/06/07 00:55:20;;;;;;;6.72;3.92;;;;;;;20.13;54.66;93414.59;5109154;27;20040;-87
2023/06/07 00:57:46;;;;;;;5.93;3.63;;;;;;;20.13;54.71;93416.59;5072057;28;20109;-87
2023/06/07 01:00:13;;;;;;;7.28;3.83;;;;;;;20.10;54.82;93409.41;5091625;28;20041;-89
2023/06/07 01:02:39;;;;;;;5.40;3.58;;;;;;;20.12;54.68;93415.84;5096922;28;20061;-93
2023/06/07 01:05:06;;;;;;;6.00;3.88;;;;;;;20.12;54.71;93415.84;5092427;28;20043;-89
2023/06/07 01:07:32;;;;;;;5.38;3.78;;;;;;;20.11;54.75;93414.38;5078264;28;20036;-88
2023/06/07 01:09:58;;;;;;;5.88;3.78;;;;;;;20.11;54.73;93414.38;5112046;28;20028;-87
2023/06/07 01:12:23;;;;;;;6.90;4.35;;;;;;;20.12;54.69;93424.09;5116055;28;20046;-88
2023/06/07 01:14:49;;;;;;;5.85;3.70;;;;;;;20.11;54.69;93417.13;5068001;28;20037;-89
2023/06/07 01:17:16;;;;;;;5.50;3.50;;;;;;;20.10;54.74;93404.66;5076650;28;20731;-90
2023/06/07 01:19:42;;;;;;;4.93;3.28;;;;;;;20.10;54.73;93412.88;5071559;28;20048;-91
2023/06/07 01:22:08;;;;;;;5.15;3.47;;;;;;;20.12;54.27;93407.63;5094836;28;20036;-89
2023/06/07 01:24:35;;;;;;;4.80;3.55;;;;;;;20.11;54.46;93411.63;5107791;28;20039;-89
2023/06/07 01:27:02;;;;;;;5.07;3.47;;;;;;;20.10;54.60;93410.13;5108635;28;20040;-88
2023/06/07 01:29:27;;;;;;;5.75;3.80;;;;;;;20.11;54.59;93414.38;5098359;27;20115;-89
2023/06/07 01:31:54;;;;;;;5.32;3.45;;;;;;;20.09;54.59;93414.16;5097781;28;20714;-87
2023/06/07 01:34:19;;;;;;;4.40;2.92;;;;;;;20.09;54.45;93407.91;5096340;28;20047;-89
2023/06/07 01:36:46;;;;;;;6.43;4.10;;;;;;;20.10;54.42;93415.63;5076713;28;20040;-88
2023/06/07 01:39:12;;;;;;;5.18;2.92;;;;;;;20.09;54.81;93403.16;5077024;28;20494;-90
2023/06/07 01:41:37;;;;;;;5.85;3.65;;;;;;;20.08;54.57;93404.44;5097818;28;20036;-90
2023/06/07 01:44:03;;;;;;;4.57;3.42;;;;;;;20.09;54.44;93403.16;5097316;27;20032;-87
2023/06/07 01:46:28;;;;;;;6.18;3.40;;;;;;;20.09;54.62;93405.16;5098813;28;20188;-87
2023/06/07 01:48:53;;;;;;;4.05;3.40;;;;;;;20.08;54.36;93407.16;5091333;28;20040;-88
2023/06/07 01:51:19;;;;;;;5.55;3.50;;;;;;;20.07;54.62;93391.97;5131960;27;20039;-88
2023/06/07 01:53:44;;;;;;;5.55;3.60;;;;;;;20.07;54.53;93400.19;5084515;28;20031;-89
2023/06/07 01:56:16;;;;;;;6.72;3.78;;;;;;;20.08;54.53;93387.97;5100900;27;20354;-92
2023/06/07 01:59:02;;;;;;;4.72;3.50;;;;;;;20.06;54.47;93395.97;5099836;28;20043;-87
2023/06/07 02:01:35;;;;;;;6.00;3.50;;;;;;;20.07;54.62;93397.47;5097912;28;20390;-88
2023/06/07 02:04:00;;;;;;;5.43;3.28;;;;;;;20.07;54.46;93400.19;5083539;28;20123;-89
2023/06/07 02:06:30;;;;;;;5.57;4.10;;;;;;;20.08;54.42;93395.44;5115751;27;20035;-87
2023/06/07 02:08:55;;;;;;;5.00;3.60;;;;;;;20.08;54.57;93404.44;5115358;28;20097;-88
2023/06/07 02:11:22;;;;;;;6.28;3.88;;;;;;;20.07;54.47;93402.19;5114705;27;20039;-90
2023/06/07 02:13:49;;;;;;;4.15;3.20;;;;;;;20.06;54.55;93389.75;5115020;28;20054;-88
2023/06/07 02:16:15;;;;;;;6.55;3.40;;;;;;;20.06;54.38;93397.97;5114582;28;20028;-87
2023/06/07 02:18:41;;;;;;;7.68;4.00;;;;;;;20.06;54.45;93395.97;5098051;28;20042;-88
2023/06/07 02:21:07;;;;;;;5.32;3.60;;;;;;;20.06;54.44;93393.22;5098273;28;20047;-90
2023/06/07 02:23:33;;;;;;;5.25;3.88;;;;;;;20.06;54.46;93395.22;5099032;28;20036;-90
2023/06/07 02:25:58;;;;;;;6.32;3.75;;;;;;;20.07;54.30;93394.72;5112722;28;20040;-88
2023/06/07 02:28:24;;;;;;;5.35;3.55;;;;;;;20.06;54.60;93393.22;5093755;28;20066;-89
2023/06/07 02:30:49;;;;;;;4.95;3.42;;;;;;;20.06;54.48;93390.47;5116861;28;20046;-87
2023/06/07 02:33:16;;;;;;;4.32;3.22;;;;;;;20.04;54.54;93401.25;5098441;28;20047;-88
2023/06/07 02:35:43;;;;;;;4.90;3.33;;;;;;;20.05;54.58;93397.22;5113797;28;20499;-88
2023/06/07 02:38:09;;;;;;;6.40;3.67;;;;;;;20.06;54.44;93401.47;5081748;28;20039;-88
2023/06/07 02:40:34;;;;;;;5.20;3.00;;;;;;;20.05;54.34;93401.97;5116542;28;20094;-88
2023/06/07 02:43:00;;;;;;;5.32;4.30;;;;;;;20.06;54.34;93403.47;5116807;28;20084;-87
2023/06/07 02:45:25;;;;;;;5.45;3.38;;;;;;;20.05;54.42;93405.47;5098965;27;20553;-88
2023/06/07 02:47:54;;;;;;;5.72;3.25;;;;;;;20.05;54.29;93396.50;5117176;28;20043;-88
2023/06/07 02:50:21;;;;;;;4.70;3.08;;;;;;;20.05;54.36;93404.72;5109521;28;20135;-89
2023/06/07 02:52:47;;;;;;;4.97;2.92;;;;;;;20.04;54.47;93395.00;5111405;28;20489;-91
2023/06/07 02:55:12;;;;;;;7.13;3.45;;;;;;;20.05;54.47;93393.75;5103021;27;20063;-90
2023/06/07 02:57:38;;;;;;;5.53;3.47;;;;;;;20.02;54.49;93401.00;5122561;28;20028;-88
2023/06/07 03:00:08;;;;;;;6.60;3.30;;;;;;;20.05;54.44;93404.72;5117803;27;20032;-89
2023/06/07 03:02:34;;;;;;;;;;;;;;;20.07;54.40;93408.44;5106169;28;20063;-89
2023/06/07 03:05:00;;;;;;;4.65;3.15;;;;;;;20.03;54.45;93408.00;5112852;28;19904;-88
2023/06/07 03:07:25;;;;;;;5.25;3.72;;;;;;;20.04;54.42;93414.22;5096530;27;20505;-88
2023/06/07 03:09:51;;;;;;;3.10;2.50;;;;;;;20.02;54.50;93405.75;5097511;28;20088;-91
2023/06/07 03:12:17;;;;;;;4.03;2.92;;;;;;;20.02;54.47;93409.25;5117871;28;20032;-89
2023/06/07 03:14:42;;;;;;;5.40;3.22;;;;;;;20.03;54.42;93399.00;5101253;28;20051;-88
2023/06/07 03:17:08;;;;;;;3.97;2.90;;;;;;;20.02;54.41;93401.00;5102454;28;20031;-88
2023/06/07 03:19:35;;;;;;;5.32;2.92;;;;;;;20.01;54.40;93405.03;5101165;28;20036;-87
2023/06/07 03:22:02;;;;;;;5.40;3.40;;;;;;;20.02;54.54;93414.75;5118129;28;20044;-87
2023/06/07 03:24:34;;;;;;;4.03;2.95;;;;;;;20.02;54.50;93411.25;5102770;28;20028;-90
2023/06/07 03:27:00;;;;;;;6.10;3.38;;;;;;;20.02;54.63;93411.25;5095633;28;20024;-89
2023/06/07 03:29:26;;;;;;;4.57;3.13;;;;;;;20.04;54.67;93414.22;5096932;28;20039;-90
2023/06/07 03:31:52;;;;;;;11.48;3.97;;;;;;;20.11;54.88;93414.38;5073675;28;20028;-88
2023/06/07 03:34:18;;;;;;;8.88;3.92;;;;;;;20.10;54.41;93409.41;5075926;28;20036;-89
2023/06/07 03:36:44;;;;;;;36.45;24.08;;;;;;;20.14;55.09;93402.31;5097938;28;20402;-92
2023/06/07 03:39:10;;;;;;;28.88;18.08;;;;;;;20.24;54.61;93418.41;5074139;28;20496;-90
2023/06/07 03:41:35;;;;;;;6.38;4.25;;;;;;;20.26;54.13;93421.38;5071279;28;20065;-90
2023/06/07 03:44:01;;;;;;;15.50;8.95;;;;;;;20.31;54.43;93417.81;5106644;28;20316;-89
2023/06/07 03:46:26;;;;;;;10.57;3.85;;;;;;;20.28;54.26;93416.84;5072463;28;20032;-88
2023/06/07 03:48:53;;;;;;;10.95;3.85;;;;;;;20.29;54.10;93412.84;5107178;28;20073;-94
2023/06/07 03:51:20;;;;;;;18.88;7.20;;;;;;;20.25;53.88;93422.63;5100648;28;20044;-91
2023/06/07 03:53:45;;;;;;;53.10;12.93;;;;;;;20.20;54.09;93422.19;5086634;28;20035;-90
2023/06/07 03:56:11;;;;;;;45.28;13.60;;;;;;;20.15;54.13;93425.75;5085757;28;20381;-93
2023/06/07 03:58:37;;;;;;;45.70;21.80;;;;;;;20.11;54.69;93427.34;5103973;28;20352;-94
2023/06/07 04:01:08;;;;;;;33.63;19.58;;;;;;;20.13;55.10;93424.81;5079179;28;20054;-90
2023/06/07 04:03:34;;;;;;;32.30;18.80;;;;;;;20.12;55.46;93429.56;5070445;28;20070;-91
2023/06/07 04:06:00;;;;;;;40.92;19.55;;;;;;;19.99;56.39;93420.53;5111192;28;20039;-91
2023/06/07 04:08:26;;;;;;;37.28;17.15;;;;;;;19.93;56.59;93425.34;5090448;28;20044;-92
2023/06/07 04:10:52;;;;;;;34.00;17.73;;;;;;;19.93;56.96;93417.09;5083414;28;20044;-90
2023/06/07 04:13:18;;;;;;;77.25;23.85;;;;;;;19.92;57.22;93426.63;5091454;28;20040;-89
2023/06/07 04:15:44;;;;;;;60.80;22.15;;;;;;;19.84;57.52;93421.00;5062597;28;20427;-89
2023/06/07 04:18:10;;;;;;;81.15;27.30;;;;;;;19.81;57.97;93433.75;5087288;27;20518;-90
2023/06/07 04:20:39;;;;;;;118.20;39.85;;;;;;;19.80;57.85;93431.50;5100994;28;20046;-89
2023/06/07 04:23:05;;;;;;;107.55;43.10;;;;;;;19.74;58.08;93428.84;5077497;27;20168;-93
2023/06/07 04:25:34;;;;;;;103.18;41.90;;;;;;;19.78;58.18;93425.81;5092590;28;20138;-91
2023/06/07 04:28:06;;;;;;;86.32;35.88;;;;;;;19.69;58.32;93428.94;5088218;28;20036;-89
2023/06/07 04:30:34;;;;;;;69.78;30.75;;;;;;;19.63;58.50;93437.22;5111486;28;20657;-89
2023/06/07 04:33:09;;;;;;;69.70;33.45;;;;;;;19.62;58.53;93438.47;5076328;28;20047;-90
2023/06/07 04:35:44;;;;;;;80.32;39.22;;;;;;;19.65;58.41;93444.94;5070094;28;20498;-92
2023/06/07 04:38:15;;;;;;;90.80;53.65;;;;;;;19.57;58.68;93441.28;5097956;28;20032;-89
2023/06/07 04:40:42;;;;;;;117.47;77.55;;;;;;;19.60;58.72;93438.25;5073596;28;20048;-91
2023/06/07 04:43:08;;;;;;;131.15;79.88;;;;;;;19.59;58.82;93439.50;5070360;28;20458;-88
2023/06/07 04:45:36;;;;;;;116.72;67.07;;;;;;;19.60;58.85;93435.50;5094839;28;20096;-92
2023/06/07 04:48:04;;;;;;;97.53;61.78;;;;;;;19.66;58.70;93443.69;5096258;28;20471;-92
2023/06/07 04:50:30;;;;;;;94.18;48.03;;;;;;;19.60;58.69;93437.50;5068237;28;20140;-91
2023/06/07 04:53:00;;;;;;;64.07;40.40;;;;;;;19.58;58.88;93440.03;5076979;28;20044;-91
2023/06/07 04:55:29;;;;;;;71.57;37.42;;;;;;;19.58;58.87;93443.50;5083417;27;20039;-91
2023/06/07 04:57:54;;;;;;;68.72;36.38;;;;;;;19.55;59.04;93444.53;5074971;28;20572;-92
2023/06/07 05:00:21;;;;;;;74.35;40.10;;;;;;;19.54;59.06;93445.81;5056453;28;20040;-93
2023/06/07 05:02:49;;;;;;;72.43;41.72;;;;;;;19.55;58.96;93449.28;5079546;28;20064;-92
2023/06/07 05:05:14;;;;;;;106.65;49.78;;;;;;;19.59;58.79;93455.97;5068414;28;20543;-90
2023/06/07 05:07:42;;;;;;;270.15;76.20;;;;;;;19.58;58.99;93451.00;5084518;28;20111;-92
2023/06/07 05:10:10;;;;;;;131.07;66.88;;;;;;;19.53;59.23;93458.03;5070219;28;20032;-91
2023/06/07 05:12:36;;;;;;;156.88;67.43;;;;;;;19.56;59.08;93445.28;5086403;28;20065;-91
2023/06/07 05:15:02;;;;;;;167.63;71.28;;;;;;;19.58;59.17;93451.00;5086382;27;20032;-90
2023/06/07 05:17:28;;;;;;;120.72;55.63;;;;;;;19.57;58.77;93450.25;5082256;28;20862;-91
2023/06/07 05:19:55;;;;;;;145.65;59.85;;;;;;;19.67;58.74;93454.13;5081511;28;20044;-91
2023/06/07 05:22:21;;;;;;;184.65;53.67;;;;;;;19.55;59.05;93457.50;5059405;28;20079;-90
2023/06/07 05:24:47;;;;;;;164.65;50.80;;;;;;;19.54;58.92;93458.78;5060063;28;20092;-91
2023/06/07 05:27:17;;;;;;;116.97;42.08;;;;;;;19.46;59.12;93456.59;5082454;27;20043;-90
2023/06/07 05:29:42;;;;;;;120.77;41.53;;;;;;;19.52;58.94;93462.78;5084886;28;20676;-90
2023/06/07 05:32:08;;;;;;;94.43;38.25;;;;;;;19.51;58.82;93461.28;5075750;28;20384;-93
2023/06/07 05:34:35;;;;;;;105.32;38.67;;;;;;;19.48;59.09;93454.09;5069214;28;20569;-90
2023/06/07 05:37:02;;;;;;;89.93;38.30;;;;;;;19.54;59.06;93461.50;5037020;28;20044;-93
2023/06/07 05:39:33;;;;;;;90.28;34.97;;;;;;;19.49;59.08;93469.25;5071419;28;20182;-90
2023/06/07 05:41:59;;;;;;;67.22;27.23;;;;;;;19.48;59.13;93458.81;5079770;28;20570;-90
2023/06/07 05:44:25;;;;;;;54.25;30.02;;;;;;;19.46;59.20;93466.81;5068652;27;20124;-90
2023/06/07 05:46:52;;;;;;;64.22;31.70;;;;;;;19.43;59.35;93465.09;5061549;28;20036;-94
2023/06/07 05:49:18;;;;;;;56.53;29.33;;;;;;;19.43;59.35;93467.84;5095208;27;20086;-92
2023/06/07 05:51:44;;;;;;;68.57;33.55;;;;;;;19.45;59.25;93471.56;5091959;28;20490;-93
2023/06/07 05:54:16;;;;;;;79.72;36.63;;;;;;;19.54;58.66;93481.44;5071154;27;20553;-92
2023/06/07 05:56:42;;;;;;;86.20;43.30;;;;;;;19.53;58.77;93474.47;5074452;28;20044;-89
2023/06/07 05:59:08;;;;;;;121.15;45.00;;;;;;;19.51;58.90;93469.50;5089975;28;20446;-88
2023/06/07 06:01:35;;;;;;;92.55;39.50;;;;;;;19.54;59.02;93475.97;5085580;28;20051;-93
2023/06/07 06:04:02;;;;;;;109.00;48.70;;;;;;;19.59;58.69;93477.16;5088561;28;20158;-91
2023/06/07 06:06:28;;;;;;;166.10;88.97;;;;;;;19.64;58.82;93473.63;5064308;28;20031;-91
2023/06/07 06:08:55;;;;;;;81.72;33.78;;;;;;;19.68;59.03;93474.06;5087502;28;20059;-92
2023/06/07 06:11:21;;;;;;;81.57;24.88;;;;;;;19.74;58.80;93477.47;5075260;28;20043;-90
2023/06/07 06:13:48;;;;;;;55.60;20.42;;;;;;;19.75;58.35;93467.97;5068233;28;20051;-90
2023/06/07 06:16:14;;;;;;;60.58;22.45;;;;;;;19.77;58.52;93468.22;5104128;27;20483;-92
2023/06/07 06:18:41;;;;;;;48.15;18.85;;;;;;;19.80;58.41;93465.16;5057863;28;20048;-90
2023/06/07 06:21:08;;;;;;;31.45;15.52;;;;;;;19.80;58.05;93470.66;5088130;28;20043;-92
2023/06/07 06:23:35;;;;;;;31.08;15.73;;;;;;;19.72;58.46;93471.75;5055853;28;20376;-91
2023/06/07 06:26:00;;;;;;;59.20;21.23;;;;;;;19.61;58.61;93472.66;5055736;28;20047;-91
2023/06/07 06:28:28;;;;;;;102.75;30.00;;;;;;;19.63;58.60;93472.88;5056605;28;20052;-92
2023/06/07 06:30:54;;;;;;;48.03;20.20;;;;;;;19.73;58.43;93475.97;5068395;28;20040;-92
2023/06/07 06:33:20;;;;;;;54.42;19.27;;;;;;;19.53;58.92;93482.69;5071041;27;20550;-91
2023/06/07 06:35:46;;;;;;;221.35;38.65;;;;;;;19.58;58.85;93481.16;5069269;28;20036;-90
2023/06/07 06:38:12;;;;;;;151.25;30.38;;;;;;;19.59;58.76;93475.16;5051328;28;20029;-90
2023/06/07 06:40:38;;;;;;;143.07;29.63;;;;;;;19.58;58.63;93481.91;5078899;28;20037;-89
2023/06/07 06:43:06;;;;;;;81.65;22.13;;;;;;;19.53;58.84;93471.75;5070702;23;20037;-88
2023/06/07 06:45:33;;;;;;;60.92;16.92;;;;;;;19.55;58.76;93477.44;5055649;28;20072;-91
2023/06/07 06:47:58;;;;;;;99.70;32.72;;;;;;;19.52;58.58;93478.47;5017054;28;20029;-87
2023/06/07 06:50:24;;;;;;;143.40;28.00;;;;;;;19.56;58.59;93473.44;5010324;28;20034;-90
2023/06/07 06:52:50;;;;;;;121.70;27.67;;;;;;;19.52;58.78;93483.97;5021593;28;20075;-90
2023/06/07 06:55:15;;;;;;;88.45;26.52;;;;;;;19.57;58.92;93485.91;5034611;28;20041;-88
2023/06/07 06:57:41;;;;;;;95.53;30.15;;;;;;;19.55;58.70;93484.94;5020411;28;20376;-90
2023/06/07 07:00:08;;;;;;;110.43;28.38;;;;;;;19.61;58.79;93485.63;5008078;28;20034;-92
2023/06/07 07:02:34;;;;;;;104.78;27.33;;;;;;;19.55;58.96;93482.19;5039812;28;20041;-90
2023/06/07 07:05:00;;;;;;;89.05;24.00;;;;;;;19.57;59.29;93487.91;5040644;28;20055;-88
2023/06/07 07:07:27;;;;;;;81.43;21.95;;;;;;;19.66;59.24;93487.56;5029831;28;20087;-89
2023/06/07 07:09:53;;;;;;;87.03;21.75;;;;;;;19.58;58.94;93486.66;5045858;28;20056;-88
2023/06/07 07:12:21;;;;;;;93.03;26.38;;;;;;;19.58;59.10;93486.66;5055497;28;20063;-89
2023/06/07 07:14:46;;;;;;;92.05;27.73;;;;;;;19.53;59.12;93485.44;5054958;28;20096;-90
2023/06/07 07:17:12;;;;;;;294.45;106.90;;;;;;;19.58;59.02;93479.16;5057768;28;20045;-92
2023/06/07 07:19:37;;;;;;;207.48;78.45;;;;;;;19.58;59.29;93490.13;5009655;28;20112;-88
2023/06/07 07:22:03;;;;;;;189.38;67.68;;;;;;;19.64;59.20;93484.59;5068521;28;20051;-89
2023/06/07 07:24:28;;;;;;;183.10;58.72;;;;;;;19.65;59.40;93483.31;5052090;28;20037;-89
2023/06/07 07:26:54;;;;;;;132.50;42.00;;;;;;;19.62;59.80;93487.84;5029815;28;20045;-90
2023/06/07 07:29:19;;;;;;;88.88;31.10;;;;;;;19.66;59.40;93482.81;5021428;28;20060;-87
2023/06/07 07:31:45;;;;;;;92.68;29.00;;;;;;;19.69;59.42;93481.03;5031565;28;20053;-88
2023/06/07 07:34:11;;;;;;;107.05;26.33;;;;;;;19.70;59.48;93482.53;5040370;28;20044;-89
2023/06/07 07:36:36;;;;;;;70.07;24.25;;;;;;;19.68;59.61;93491.28;5045884;28;20038;-89
2023/06/07 07:39:05;;;;;;;62.90;22.38;;;;;;;19.69;59.57;93492.00;5032393;28;20044;-93
2023/06/07 07:41:33;;;;;;;57.65;20.60;;;;;;;19.70;59.60;93490.75;5012130;28;20422;-89
2023/06/07 07:43:58;;;;;;;53.60;19.90;;;;;;;19.72;59.26;93488.94;5026305;28;20072;-91
2023/06/07 07:46:24;;;;;;;54.83;22.38;;;;;;;19.77;59.29;93492.91;5026655;28;20528;-90
2023/06/07 07:48:49;;;;;;;31.83;15.98;;;;;;;19.70;59.97;93488.00;5022770;28;20037;-89
2023/06/07 07:51:15;;;;;;;39.88;15.68;;;;;;;19.73;59.81;93487.69;5019709;28;20037;-91
2023/06/07 07:53:42;;;;;;;48.75;16.02;;;;;;;19.74;59.73;93482.94;5022045;28;20052;-90
2023/06/07 07:56:07;;;;;;;39.13;15.73;;;;;;;19.71;60.16;93481.25;5014801;28;20122;-91
2023/06/07 07:58:33;;;;;;;41.80;16.50;;;;;;;19.72;59.93;93488.94;5034333;28;20037;-90
2023/06/07 08:00:58;;;;;;;48.55;17.20;;;;;;;19.80;59.86;93486.38;5023272;28;20038;-90
2023/06/07 08:03:24;;;;;;;67.10;22.38;;;;;;;19.85;59.52;93480.09;5059306;28;20033;-91
2023/06/07 08:05:50;;;;;;;66.15;23.88;;;;;;;19.83;59.63;93490.81;5034073;28;20037;-87
2023/06/07 08:08:23;;;;;;;46.83;17.95;;;;;;;19.88;59.17;93479.03;5043239;28;20041;-90
2023/06/07 08:10:48;;;;;;;35.47;17.55;;;;;;;19.83;59.36;93486.09;5017130;28;20029;-90
2023/06/07 08:13:14;;;;;;;48.60;30.30;;;;;;;19.84;59.37;93484.09;5045635;28;20044;-91
2023/06/07 08:15:40;;;;;;;41.42;22.75;;;;;;;19.88;59.50;93479.03;5044291;28;20037;-87
2023/06/07 08:18:05;;;;;;;50.90;23.25;;;;;;;19.78;59.88;93481.41;5054976;28;20048;-91
2023/06/07 08:20:33;;;;;;;68.82;22.98;;;;;;;19.80;59.78;93486.38;5027182;28;20045;-92
2023/06/07 08:22:58;;;;;;;71.40;22.95;;;;;;;19.82;59.48;93483.84;5013155;28;20034;-88
2023/06/07 08:25:32;;;;;;;51.72;21.65;;;;;;;19.82;59.42;93492.09;5034479;28;20100;-88
2023/06/07 08:27:58;;;;;;;72.72;20.80;;;;;;;19.86;59.38;93487.06;5010164;28;20072;-89
2023/06/07 08:30:23;;;;;;;71.50;19.65;;;;;;;19.86;59.43;93495.28;4989281;28;20591;-87
2023/06/07 08:32:50;;;;;;;90.45;22.73;;;;;;;19.89;59.57;93488.03;4993754;28;20038;-87
2023/06/07 08:35:24;;;;;;;175.48;38.15;;;;;;;19.85;59.67;93489.06;4993671;28;20045;-89
2023/06/07 08:37:50;;;;;;;128.38;25.63;;;;;;;19.89;59.39;93488.75;4996337;28;20125;-92
2023/06/07 08:40:18;;;;;;;122.70;25.25;;;;;;;19.89;59.23;93483.28;5012476;28;20038;-89
2023/06/07 08:42:44;;;;;;;68.50;19.10;;;;;;;19.85;59.29;93491.06;5001122;28;20042;-88
2023/06/07 08:45:10;;;;;;;79.50;18.20;;;;;;;19.88;59.39;93487.28;4999124;28;20626;-87
2023/06/07 08:47:37;;;;;;;63.80;17.30;;;;;;;19.87;59.69;93488.53;4992751;28;20061;-90
2023/06/07 08:50:03;;;;;;;63.75;22.10;;;;;;;19.88;59.36;93489.28;4986493;28;20042;-88
2023/06/07 08:52:30;;;;;;;59.40;19.77;;;;;;;19.88;59.56;93498.25;4964080;28;20061;-90
2023/06/07 08:55:05;;;;;;;56.53;20.00;;;;;;;19.88;59.28;93500.25;5011941;28;20046;-87
2023/06/07 08:57:31;;;;;;;62.35;19.60;;;;;;;19.89;59.00;93497.00;5007192;28;20066;-88
2023/06/07 08:59:57;;;;;;;54.38;18.50;;;;;;;19.87;59.69;93498.78;4998347;28;20042;-91
2023/06/07 09:02:24;;;;;;;61.05;17.88;;;;;;;19.85;59.39;93493.78;5028217;28;20041;-94
2023/06/07 09:04:51;;;;;;;45.53;16.17;;;;;;;19.89;59.62;93496.25;5032486;28;20048;-88
2023/06/07 09:07:16;;;;;;;40.15;17.95;;;;;;;19.92;59.18;93495.22;5039839;28;20033;-91
2023/06/07 09:09:43;;;;;;;51.45;17.67;;;;;;;19.92;59.38;93492.47;5038675;28;20049;-89
2023/06/07 09:12:10;;;;;;;56.80;19.17;;;;;;;19.90;59.48;93493.00;5019471;28;20045;-89
2023/06/07 09:14:36;;;;;;;41.80;17.70;;;;;;;19.96;59.29;93498.38;5036823;28;20527;-89
2023/06/07 09:17:10;;;;;;;45.92;14.98;;;;;;;19.94;59.11;93495.41;5044013;28;20045;-89
2023/06/07 09:19:39;;;;;;;61.78;16.35;;;;;;;19.92;59.38;93492.47;5032042;28;20190;-91
2023/06/07 09:22:07;;;;;;;52.00;17.10;;;;;;;19.97;59.10;93497.13;5036147;28;20068;-92
2023/06/07 09:24:33;;;;;;;38.30;15.10;;;;;;;19.95;59.50;93494.91;5018200;28;20045;-91
2023/06/07 09:27:00;;;;;;;33.78;17.05;;;;;;;19.96;59.14;93481.91;5003409;28;20042;-91
2023/06/07 09:29:28;;;;;;;31.08;18.45;;;;;;;19.96;58.97;93487.41;5014889;28;20038;-88
2023/06/07 09:31:55;;;;;;;48.00;21.95;;;;;;;19.95;59.16;93489.41;5033801;28;20053;-90
2023/06/07 09:34:24;;;;;;;41.72;20.05;;;;;;;20.03;59.08;93497.81;5016036;28;20084;-92
2023/06/07 09:36:57;;;;;;;40.13;20.95;;;;;;;19.97;59.06;93486.91;5019784;28;20462;-88
2023/06/07 09:39:32;;;;;;;44.60;20.67;;;;;;;20.01;58.96;93490.09;5028849;28;20048;-91
2023/06/07 09:41:58;;;;;;;86.93;29.40;;;;;;;20.01;58.83;93495.56;4999756;28;20042;-88
2023/06/07 09:44:27;;;;;;;64.35;32.72;;;;;;;20.07;58.71;93488.03;5008809;28;20235;-91
2023/06/07 09:46:53;;;;;;;102.88;52.33;;;;;;;20.03;58.66;93475.84;5027319;28;20092;-89
2023/06/07 09:49:33;;;;;;;109.22;55.40;;;;;;;20.03;58.66;93473.09;5015713;28;20033;-88
2023/06/07 09:52:02;;;;;;;106.53;55.92;;;;;;;20.05;58.43;93467.84;5033022;28;20415;-91
2023/06/07 09:54:44;;;;;;;106.88;62.47;;;;;;;20.06;58.29;93470.06;5015492;28;20038;-91
2023/06/07 09:57:11;;;;;;;119.40;64.53;;;;;;;20.07;58.38;93484.53;5030536;28;20045;-92
2023/06/07 09:59:37;;;;;;;107.57;54.22;;;;;;;20.08;58.62;93481.28;5005903;28;20033;-88
2023/06/07 10:02:23;;;;;;;137.00;59.28;;;;;;;20.13;58.29;93474.97;5017153;28;20034;-86
2023/06/07 10:04:48;;;;;;;102.03;43.53;;;;;;;20.12;58.15;93483.72;5006526;28;20029;-87
2023/06/07 10:07:14;;;;;;;90.85;37.75;;;;;;;20.11;58.57;93476.75;5010364;28;20506;-90
2023/06/07 10:09:39;;;;;;;153.50;64.53;;;;;;;20.14;58.62;93483.91;5001431;28;20041;-87
2023/06/07 10:12:07;;;;;;;210.52;80.53;;;;;;;20.12;59.21;93478.22;5023764;28;20038;-87
2023/06/07 10:14:34;;;;;;;64.40;32.80;;;;;;;20.13;59.84;93479.72;5003468;28;20033;-88
2023/06/07 10:17:05;;;;;;;57.60;29.48;;;;;;;20.09;59.95;93488.25;5044231;28;20041;-86
2023/06/07 10:19:36;;;;;;;66.55;35.05;;;;;;;20.06;59.62;93481.03;5060619;28;20037;-88
2023/06/07 10:22:01;;;;;;;;;;;;;;;20.09;59.61;93485.50;5032354;28;20107;-87
2023/06/07 10:24:39;;;;;;;35.90;21.90;;;;;;;20.07;59.85;93492.75;5051406;28;19928;-87
2023/06/07 10:27:14;;;;;;;38.13;21.50;;;;;;;20.03;60.10;93490.31;4995698;28;20503;-89
2023/06/07 10:29:48;;;;;;;46.95;26.67;;;;;;;20.04;60.54;93491.06;5011059;28;20037;-89
2023/06/07 10:32:15;;;;;;;80.82;38.95;;;;;;;20.04;60.62;93486.31;5040699;28;20088;-89
2023/06/07 10:34:45;;;;;;;81.38;43.92;;;;;;;20.05;60.72;93489.78;5029192;28;20049;-89
2023/06/07 10:37:13;;;;;;;30.73;19.40;;;;;;;20.07;60.97;93487.28;5032488;28;20037;-91
2023/06/07 10:39:38;;;;;;;18.98;13.73;;;;;;;20.06;61.45;93492.03;5025458;28;20455;-91
2023/06/07 10:42:06;;;;;;;21.85;13.32;;;;;;;20.08;60.99;93486.75;5048190;28;20045;-93
2023/06/07 10:44:32;;;;;;;17.90;13.07;;;;;;;20.05;61.08;93478.81;5006778;28;20052;-85
2023/06/07 10:47:25;;;;;;;17.73;13.00;;;;;;;20.08;60.91;93486.00;5014561;28;20124;-92
2023/06/07 10:49:53;;;;;;;23.92;14.35;;;;;;;20.09;60.87;93487.50;5053032;28;20037;-90
2023/06/07 10:52:19;;;;;;;36.28;14.05;;;;;;;20.05;61.12;93487.78;5014943;28;20095;-92
2023/06/07 10:54:45;;;;;;;20.38;14.43;;;;;;;20.03;61.00;93476.59;5033794;28;20487;-91
2023/06/07 10:57:11;;;;;;;36.03;16.02;;;;;;;20.04;61.21;93491.06;5057412;28;20060;-89
2023/06/07 10:59:36;;;;;;;33.72;17.80;;;;;;;20.06;60.98;93485.78;5056504;28;20082;-88
2023/06/07 11:02:23;;;;;;;31.00;16.13;;;;;;;20.04;61.25;93491.06;5048156;28;20037;-90
2023/06/07 11:04:48;;;;;;;52.47;25.35;;;;;;;20.08;61.09;93483.28;5026074;28;20519;-90
2023/06/07 11:07:32;;;;;;;59.10;28.55;;;;;;;20.13;61.26;93487.94;5038030;28;20041;-93
2023/06/07 11:10:17;;;;;;;72.68;28.75;;;;;;;20.06;61.31;93489.28;5042185;28;20326;-89
2023/06/07 11:12:46;;;;;;;77.43;33.88;;;;;;;20.06;61.59;93483.78;5047005;28;20034;-92
2023/06/07 11:15:17;;;;;;;99.00;37.47;;;;;;;20.06;61.65;93489.28;5038604;28;20025;-88
2023/06/07 11:17:54;;;;;;;87.60;36.03;;;;;;;20.06;61.53;93481.03;5056315;28;20033;-92
2023/06/07 11:20:41;;;;;;;74.78;36.45;;;;;;;20.07;61.29;93479.03;5070103;28;20116;-89
2023/06/07 11:23:26;;;;;;;88.38;37.25;;;;;;;20.09;61.15;93482.75;5052459;28;20139;-91